METAR Data
IDs: Format: Raw Decoded Include TAF

Data at: 0700 UTC 18 Sep 2021

KRDG 180654Z AUTO 35003KT 7SM OVC014 22/20 A3011 RMK AO2 SLP197 T02170200 $
KRDG 180624Z AUTO 35003KT 7SM OVC014 22/20 A3011 RMK AO2 T02170200 $
KRDG 180554Z AUTO 00000KT 8SM OVC015 21/20 A3011 RMK AO2 SLP199 T02110200 10239 20206 56006 $
KRDG 180524Z AUTO 02003KT 8SM OVC015 21/20 A3012 RMK AO2 T02110200 $
KRDG 180454Z AUTO 33003KT 9SM OVC012 21/20 A3012 RMK AO2 SLP201 T02110200 402500206 $
KRDG 180420Z AUTO 00000KT 8SM BKN013 21/20 A3012 RMK AO2 T02060200

KRDG 180520Z 1806/1906 VRB02KT 6SM BR OVC015
  FM181000 00000KT 3SM BR OVC008
  FM181200 VRB02KT P6SM OVC015
  FM181400 VRB03KT P6SM BKN050
  FM181900 30006KT P6SM SCT200
  FM190100 35003KT P6SM SKC


KLNS 180653Z AUTO 00000KT 7SM OVC011 22/19 A3012 RMK AO2 SLP196 T02170194
KLNS 180553Z AUTO 00000KT 6SM BR OVC012 21/19 A3013 RMK AO2 SLP198 T02110189 10222 20194 56006
KLNS 180505Z AUTO 00000KT 6SM BR BKN013 20/18 A3013 RMK AO2 T02000178
KLNS 180453Z AUTO 00000KT 6SM BR FEW013 20/18 A3013 RMK AO2 SLP200 T02000178 402720194

KLNS 180521Z 1806/1906 00000KT 5SM BR BKN012
  FM181000 00000KT 1SM BR SCT004
  FM181300 00000KT 6SM BR BKN020
  FM181600 32006KT P6SM SCT025 BKN050


KMDT 180656Z 00000KT 7SM BKN031 22/19 A3011 RMK AO2 SLP194 T02170189
KMDT 180556Z 00000KT 8SM OVC033 21/18 A3012 RMK AO2 SLP197 T02110183 10239 20206 58005
KMDT 180456Z 00000KT 8SM CLR 21/18 A3013 RMK AO2 SLP202 T02060183 402720206

KMDT 180521Z 1806/1906 00000KT P6SM SKC
  FM180700 00000KT 5SM BR BKN015
  FM181200 00000KT 3SM BR SCT010
  FM181500 31006KT P6SM SCT025 BKN050


KMUI 180656Z AUTO 00000KT 7SM BKN012 19/18 A3012 RMK AO2 SLP200 T01870175 $
KMUI 180652Z AUTO 00000KT 6SM BR BKN012 19/18 A3012 RMK AO2 BKN V SCT SLP200 $
KMUI 180620Z AUTO 00000KT 9SM SCT016 19/18 A3013 RMK AO2 SLP204 $
KMUI 180556Z AUTO 00000KT 7SM BKN016 BKN029 19/18 A3013 RMK AO2 SLP204 T01900178 10216 20189 55006 $
KMUI 180528Z AUTO 00000KT 10SM BKN016 OVC030 19/18 A3013 RMK AO2 CIG 016V030 BKN V SCT SLP204 $
KMUI 180512Z AUTO 00000KT 10SM SCT018 OVC030 19/18 A3014 RMK AO2 SLP207 $
KMUI 180456Z AUTO 00000KT 10SM OVC016 20/18 A3014 RMK AO2 SLP207 T01950180 402560189 $
KMUI 180436Z AUTO 00000KT 10SM OVC015 19/18 A3014 RMK AO2 SLP207 $

TAF AMD KMUI 180010Z 1800/1901 VRB06KT 9999 FEW050 QNH3008INS
  BECMG 1804/1805 VRB06KT 9999 BKN010 QNH3006INS
  TEMPO 1809/1813 3200 BR
  BECMG 1813/1814 31006KT 9999 SCT012 BKN020 QNH3006INS
  BECMG 1817/1818 30009KT 9999 FEW050 QNH3002INS TX27/1819Z TN19/1809Z LAST NO AMDS AFT 1804 NEXT 2011


KABE 180651Z 30003KT 10SM BKN008 OVC016 19/18 A3012 RMK AO2 SLP195 T01940183
KABE 180646Z 29004KT 10SM BKN008 OVC016 19/18 A3012 RMK AO2
KABE 180639Z 28004KT 10SM SCT007 OVC016 19/18 A3012 RMK AO2 T01940183
KABE 180628Z 00000KT 10SM BKN007 OVC016 19/18 A3012 RMK AO2 T01940183
KABE 180602Z 28004KT 10SM FEW006 OVC016 19/18 A3012 RMK AO2 T01940183
KABE 180551Z 26003KT 10SM BKN016 19/18 A3012 RMK AO2 SLP195 T01890183 10206 20183 56010
KABE 180451Z 05004KT 10SM CLR 19/18 A3012 RMK AO2 SLP197 T01890178 402440183

KABE 180621Z 1806/1906 VRB02KT 5SM BR BKN015
  FM180900 00000KT 2SM BR OVC005
  FM181200 VRB02KT P6SM OVC015
  FM181400 VRB03KT P6SM BKN050
  FM181900 30006KT P6SM SCT200
  FM190100 35003KT P6SM SKC